Time,TemperatureF,DewpointF,PressureIn,WindDirection,WindDirectionDegrees,WindSpeedMPH,WindSpeedGustMPH,Humidity,HourlyPrecipIn,Conditions,Clouds,dailyrainin,SoftwareType,DateUTC
2013-02-15 00:03:00,36.6,26.7,30.22,NW,311,7.0,15.0,67,0.00,CLR,SKC,0.00,WeatherDisplay:10.37,2013-02-15 06:03:00,
2013-02-15 00:08:00,36.5,26.5,30.22,NW,316,6.0,13.0,67,0.00,CLR,SKC,0.00,WeatherDisplay:10.37,2013-02-15 06:08:00,
2013-02-15 00:18:00,36.1,26.6,30.22,NW,319,3.0,7.0,68,0.00,CLR,SKC,0.00,WeatherDisplay:10.37,2013-02-15 06:18:00,
2013-02-15 00:23:00,36.0,26.5,30.22,NW,313,5.0,12.0,68,0.00,CLR,SKC,0.00,WeatherDisplay:10.37,2013-02-15 06:23:00,
2013-02-15 00:28:00,35.8,26.3,30.22,NW,304,8.0,13.0,68,0.00,CLR,SKC,0.00,WeatherDisplay:10.37,2013-02-15 06:28:00,
2013-02-15 00:33:00,35.5,26.0,30.22,NW,317,2.0,10.0,68,0.00,CLR,SKC,0.00,WeatherDisplay:10.37,2013-02-15 06:33:00,
2013-02-15 00:38:00,35.2,26.0,30.22,NNW,337,1.0,12.0,69,0.00,CLR,SKC,0.00,WeatherDisplay:10.37,2013-02-15 06:38:00,
2013-02-15 00:48:00,34.6,25.8,30.23,NW,307,3.0,7.0,70,0.00,CLR,SKC,0.00,WeatherDisplay:10.37,2013-02-15 06:48:00,
2013-02-15 00:53:00,34.3,25.5,30.23,WNW,287,2.0,8.0,70,0.00,CLR,SKC,0.00,WeatherDisplay:10.37,2013-02-15 06:53:00,
2013-02-15 00:58:00,34.2,25.7,30.23,WNW,296,5.0,8.0,71,0.00,CLR,SKC,0.00,WeatherDisplay:10.37,2013-02-15 06:58:00,
2013-02-15 01:03:00,34.0,25.6,30.23,NW,315,6.0,8.0,71,0.00,CLR,SKC,0.00,WeatherDisplay:10.37,2013-02-15 07:03:00,
2013-02-15 01:08:00,34.0,25.6,30.23,NW,313,0.0,8.0,71,0.00,CLR,SKC,0.00,WeatherDisplay:10.37,2013-02-15 07:08:00,
2013-02-15 01:18:00,34.0,25.9,30.24,WNW,292,1.0,10.0,72,0.00,CLR,SKC,0.00,WeatherDisplay:10.37,2013-02-15 07:18:00,
2013-02-15 01:23:00,33.9,25.8,30.24,WNW,302,5.0,7.0,72,0.00,CLR,SKC,0.00,WeatherDisplay:10.37,2013-02-15 07:23:00,
2013-02-15 01:28:00,33.9,25.8,30.24,NW,306,5.0,8.0,72,0.00,CLR,SKC,0.00,WeatherDisplay:10.37,2013-02-15 07:28:00,
2013-02-15 01:33:00,33.8,25.7,30.24,WNW,303,1.0,10.0,72,0.00,CLR,SKC,0.00,WeatherDisplay:10.37,2013-02-15 07:33:00,
2013-02-15 01:38:00,33.8,25.7,30.24,WNW,302,3.0,7.0,72,0.00,CLR,SKC,0.00,WeatherDisplay:10.37,2013-02-15 07:38:00,
2013-02-15 01:48:00,33.6,25.9,30.25,WNW,296,2.0,8.0,73,0.00,CLR,SKC,0.00,WeatherDisplay:10.37,2013-02-15 07:48:00,
2013-02-15 01:53:00,33.6,26.2,30.25,NW,304,6.0,8.0,74,0.00,CLR,SKC,0.00,WeatherDisplay:10.37,2013-02-15 07:53:00,
2013-02-15 01:58:00,33.5,26.1,30.25,NW,310,5.0,8.0,74,0.00,CLR,SKC,0.00,WeatherDisplay:10.37,2013-02-15 07:58:00,
2013-02-15 02:03:00,33.5,26.4,30.25,NW,311,7.0,15.0,75,0.00,CLR,SKC,0.00,WeatherDisplay:10.37,2013-02-15 08:03:00,
2013-02-15 02:08:00,33.4,26.7,30.25,NW,310,3.0,15.0,76,0.00,CLR,SKC,0.00,WeatherDisplay:10.37,2013-02-15 08:08:00,
2013-02-15 02:13:00,33.3,27.2,30.26,NW,323,8.0,22.0,78,0.00,CLR,SKC,0.00,WeatherDisplay:10.37,2013-02-15 08:13:00,
2013-02-15 02:18:00,33.2,27.1,30.26,NNW,347,7.0,28.0,78,0.00,CLR,SKC,0.00,WeatherDisplay:10.37,2013-02-15 08:18:00,
2013-02-15 02:23:00,33.0,27.2,30.27,North,355,7.0,22.0,79,0.00,CLR,SKC,0.00,WeatherDisplay:10.37,2013-02-15 08:23:00,
2013-02-15 02:28:00,32.5,27.0,30.27,North,350,15.0,22.0,80,0.00,CLR,SKC,0.00,WeatherDisplay:10.37,2013-02-15 08:28:00,
2013-02-15 02:38:00,31.9,25.8,30.28,North,354,13.0,21.0,78,0.00,CLR,SKC,0.00,WeatherDisplay:10.37,2013-02-15 08:38:00,
2013-02-15 02:48:00,31.3,24.9,30.28,North,356,8.0,20.0,77,0.00,CLR,SKC,0.00,WeatherDisplay:10.37,2013-02-15 08:48:00,
2013-02-15 02:58:00,31.1,24.1,30.28,North,349,8.0,18.0,75,0.00,CLR,SKC,0.00,WeatherDisplay:10.37,2013-02-15 08:58:00,
2013-02-15 03:03:00,31.0,23.0,30.29,North,2,12.0,24.0,72,0.00,CLR,SKC,0.00,WeatherDisplay:10.37,2013-02-15 09:03:00,
2013-02-15 03:08:00,31.0,22.3,30.29,North,353,12.0,21.0,70,0.00,CLR,SKC,0.00,WeatherDisplay:10.37,2013-02-15 09:08:00,
2013-02-15 03:13:00,30.8,20.8,30.29,North,353,20.0,29.0,66,0.00,CLR,SKC,0.00,WeatherDisplay:10.37,2013-02-15 09:13:00,
2013-02-15 03:18:00,30.7,20.0,30.29,NNW,339,7.0,15.0,64,0.00,CLR,SKC,0.00,WeatherDisplay:10.37,2013-02-15 09:18:00,
2013-02-15 03:23:00,30.6,19.1,30.29,NNW,337,13.0,21.0,62,0.00,CLR,SKC,0.00,WeatherDisplay:10.37,2013-02-15 09:23:00,
2013-02-15 03:28:00,30.5,19.0,30.29,North,351,13.0,16.0,62,0.00,CLR,SKC,0.00,WeatherDisplay:10.37,2013-02-15 09:28:00,
2013-02-15 03:33:00,30.5,18.6,30.30,NNW,334,15.0,26.0,61,0.00,CLR,SKC,0.00,WeatherDisplay:10.37,2013-02-15 09:33:00,
2013-02-15 03:38:00,30.3,18.1,30.30,NNW,334,8.0,18.0,60,0.00,CLR,SKC,0.00,WeatherDisplay:10.37,2013-02-15 09:38:00,
2013-02-15 03:43:00,30.0,17.4,30.30,NNW,336,10.0,26.0,59,0.00,CLR,SKC,0.00,WeatherDisplay:10.37,2013-02-15 09:43:00,
2013-02-15 03:48:00,29.8,16.8,30.30,NNW,332,15.0,20.0,58,0.00,CLR,SKC,0.00,WeatherDisplay:10.37,2013-02-15 09:48:00,
2013-02-15 03:53:00,29.6,17.0,30.30,NNW,347,12.0,20.0,59,0.00,CLR,SKC,0.00,WeatherDisplay:10.37,2013-02-15 09:53:00,
2013-02-15 03:58:00,29.4,17.2,30.30,NNW,341,6.0,13.0,60,0.00,CLR,SKC,0.00,WeatherDisplay:10.37,2013-02-15 09:58:00,
2013-02-15 04:03:00,29.3,17.1,30.31,NNW,334,6.0,12.0,60,0.00,CLR,SKC,0.00,WeatherDisplay:10.37,2013-02-15 10:03:00,
2013-02-15 04:08:00,29.1,16.9,30.31,NNW,337,7.0,13.0,60,0.00,CLR,SKC,0.00,WeatherDisplay:10.37,2013-02-15 10:08:00,
2013-02-15 04:18:00,28.8,16.3,30.31,NNW,342,6.0,15.0,59,0.00,CLR,SKC,0.00,WeatherDisplay:10.37,2013-02-15 10:18:00,
2013-02-15 04:28:00,28.4,16.3,30.31,North,359,9.0,18.0,60,0.00,CLR,SKC,0.00,WeatherDisplay:10.37,2013-02-15 10:28:00,
2013-02-15 04:33:00,28.3,16.5,30.32,NNW,345,10.0,18.0,61,0.00,CLR,SKC,0.00,WeatherDisplay:10.37,2013-02-15 10:33:00,
2013-02-15 04:38:00,28.1,16.8,30.32,NNW,331,6.0,15.0,62,0.00,CLR,SKC,0.00,WeatherDisplay:10.37,2013-02-15 10:38:00,
2013-02-15 04:43:00,27.9,16.9,30.32,NNW,345,8.0,13.0,63,0.00,CLR,SKC,0.00,WeatherDisplay:10.37,2013-02-15 10:43:00,
2013-02-15 04:48:00,27.7,16.7,30.33,NW,326,8.0,12.0,63,0.00,CLR,SKC,0.00,WeatherDisplay:10.37,2013-02-15 10:48:00,
2013-02-15 04:53:00,27.3,16.4,30.33,NW,316,7.0,12.0,63,0.00,CLR,SKC,0.00,WeatherDisplay:10.37,2013-02-15 10:53:00,
2013-02-15 04:58:00,26.9,16.0,30.33,NW,326,7.0,10.0,63,0.00,CLR,SKC,0.00,WeatherDisplay:10.37,2013-02-15 10:58:00,
2013-02-15 05:03:00,26.5,15.2,30.33,NW,318,5.0,12.0,62,0.00,CLR,SKC,0.00,WeatherDisplay:10.37,2013-02-15 11:03:00,
2013-02-15 05:08:00,26.1,14.8,30.34,NW,318,6.0,16.0,62,0.00,CLR,SKC,0.00,WeatherDisplay:10.37,2013-02-15 11:08:00,
2013-02-15 05:18:00,25.5,13.9,30.35,NW,312,8.0,16.0,61,0.00,CLR,SKC,0.00,WeatherDisplay:10.37,2013-02-15 11:18:00,
2013-02-15 05:23:00,25.3,13.3,30.35,NW,324,5.0,12.0,60,0.00,CLR,SKC,0.00,WeatherDisplay:10.37,2013-02-15 11:23:00,
2013-02-15 05:28:00,25.0,12.7,30.36,NNW,328,7.0,14.0,59,0.00,CLR,SKC,0.00,WeatherDisplay:10.37,2013-02-15 11:28:00,
2013-02-15 05:38:00,24.5,12.6,30.36,North,352,8.0,12.0,60,0.00,CLR,SKC,0.00,WeatherDisplay:10.37,2013-02-15 11:38:00,
2013-02-15 05:43:00,24.3,12.8,30.36,North,353,12.0,16.0,61,0.00,CLR,SKC,0.00,WeatherDisplay:10.37,2013-02-15 11:43:00,
2013-02-15 05:48:00,24.2,12.7,30.36,North,358,12.0,16.0,61,0.00,CLR,SKC,0.00,WeatherDisplay:10.37,2013-02-15 11:48:00,
2013-02-15 05:53:00,24.1,12.9,30.36,NNW,343,7.0,13.0,62,0.00,CLR,SKC,0.00,WeatherDisplay:10.37,2013-02-15 11:53:00,
2013-02-15 06:03:00,23.8,13.0,30.37,NNW,338,3.0,8.0,63,0.00,CLR,SKC,0.00,WeatherDisplay:10.37,2013-02-15 12:03:00,
2013-02-15 06:08:00,23.6,13.6,30.37,NW,325,3.0,12.0,65,0.00,CLR,SKC,0.00,WeatherDisplay:10.37,2013-02-15 12:08:00,
2013-02-15 06:18:00,23.1,15.1,30.37,NNW,335,2.0,5.0,71,0.00,CLR,SKC,0.00,WeatherDisplay:10.37,2013-02-15 12:18:00,
2013-02-15 06:23:00,22.9,15.6,30.37,NNW,340,5.0,10.0,73,0.00,CLR,SKC,0.00,WeatherDisplay:10.37,2013-02-15 12:23:00,
2013-02-15 06:28:00,22.8,15.4,30.37,NNW,336,2.0,8.0,73,0.00,CLR,SKC,0.00,WeatherDisplay:10.37,2013-02-15 12:28:00,
2013-02-15 06:38:00,22.4,15.4,30.37,North,359,5.0,12.0,74,0.00,CLR,SKC,0.00,WeatherDisplay:10.37,2013-02-15 12:38:00,
2013-02-15 06:43:00,22.3,15.6,30.38,North,350,2.0,12.0,75,0.00,CLR,SKC,0.00,WeatherDisplay:10.37,2013-02-15 12:43:00,
2013-02-15 06:48:00,22.2,15.8,30.38,NNW,341,5.0,8.0,76,0.00,CLR,SKC,0.00,WeatherDisplay:10.37,2013-02-15 12:48:00,
2013-02-15 06:53:00,22.1,16.0,30.38,NNW,335,2.0,8.0,77,0.00,CLR,SKC,0.00,WeatherDisplay:10.37,2013-02-15 12:53:00,
2013-02-15 06:58:00,21.9,15.8,30.38,NNW,329,3.0,7.0,77,0.00,CLR,SKC,0.00,WeatherDisplay:10.37,2013-02-15 12:58:00,
2013-02-15 07:03:00,21.8,16.0,30.38,NW,322,3.0,5.0,78,0.00,CLR,SKC,0.00,WeatherDisplay:10.37,2013-02-15 13:03:00,
2013-02-15 07:08:00,21.6,16.1,30.38,NNW,329,2.0,7.0,79,0.00,CLR,SKC,0.00,WeatherDisplay:10.37,2013-02-15 13:08:00,
2013-02-15 07:18:00,21.2,16.0,30.39,NW,322,2.0,8.0,80,0.00,CLR,SKC,0.00,WeatherDisplay:10.37,2013-02-15 13:18:00,
2013-02-15 07:23:00,21.1,15.9,30.39,NW,317,3.0,12.0,80,0.00,CLR,SKC,0.00,WeatherDisplay:10.37,2013-02-15 13:23:00,
2013-02-15 07:28:00,20.9,15.7,30.40,NW,310,3.0,10.0,80,0.00,CLR,SKC,0.00,WeatherDisplay:10.37,2013-02-15 13:28:00,
2013-02-15 07:33:00,20.8,15.6,30.40,NW,320,3.0,7.0,80,0.00,CLR,SKC,0.00,WeatherDisplay:10.37,2013-02-15 13:33:00,
2013-02-15 07:38:00,20.8,15.6,30.40,NW,324,1.0,3.0,80,0.00,CLR,SKC,0.00,WeatherDisplay:10.37,2013-02-15 13:38:00,
2013-02-15 07:43:00,20.7,15.8,30.40,NW,309,1.0,5.0,81,0.00,CLR,SKC,0.00,WeatherDisplay:10.37,2013-02-15 13:43:00,
2013-02-15 07:48:00,20.6,15.7,30.41,NW,315,3.0,7.0,81,0.00,CLR,SKC,0.00,WeatherDisplay:10.37,2013-02-15 13:48:00,
2013-02-15 07:53:00,20.6,15.4,30.41,NW,319,2.0,5.0,80,0.00,CLR,SKC,0.00,WeatherDisplay:10.37,2013-02-15 13:53:00,
2013-02-15 07:58:00,20.7,15.5,30.41,NW,315,3.0,7.0,80,0.00,CLR,SKC,0.00,WeatherDisplay:10.37,2013-02-15 13:58:00,
2013-02-15 08:03:00,20.9,15.4,30.41,NW,308,2.0,7.0,79,0.00,CLR,SKC,0.00,WeatherDisplay:10.37,2013-02-15 14:03:00,
2013-02-15 08:08:00,21.1,15.6,30.41,NW,312,3.0,12.0,79,0.00,CLR,SKC,0.00,WeatherDisplay:10.37,2013-02-15 14:08:00,
2013-02-15 08:13:00,21.2,15.4,30.42,NNW,331,2.0,7.0,78,0.00,CLR,SKC,0.00,WeatherDisplay:10.37,2013-02-15 14:13:00,
2013-02-15 08:18:00,21.4,15.6,30.42,NW,326,6.0,12.0,78,0.00,CLR,SKC,0.00,WeatherDisplay:10.37,2013-02-15 14:18:00,
2013-02-15 08:23:00,21.6,15.5,30.42,NW,321,3.0,6.0,77,0.00,CLR,SKC,0.00,WeatherDisplay:10.37,2013-02-15 14:23:00,
2013-02-15 08:28:00,21.8,15.7,30.42,NNW,336,2.0,7.0,77,0.00,CLR,SKC,0.00,WeatherDisplay:10.37,2013-02-15 14:28:00,
2013-02-15 08:33:00,22.0,15.3,30.42,North,350,5.0,7.0,75,0.00,CLR,SKC,0.00,WeatherDisplay:10.37,2013-02-15 14:33:00,
2013-02-15 08:38:00,22.3,15.6,30.42,NNW,344,1.0,15.0,75,0.00,CLR,SKC,0.00,WeatherDisplay:10.37,2013-02-15 14:38:00,
2013-02-15 08:43:00,22.6,15.6,30.42,NNW,334,2.0,10.0,74,0.00,CLR,SKC,0.00,WeatherDisplay:10.37,2013-02-15 14:43:00,
2013-02-15 08:48:00,22.8,15.5,30.42,NNW,336,3.0,12.0,73,0.00,CLR,SKC,0.00,WeatherDisplay:10.37,2013-02-15 14:48:00,
2013-02-15 08:58:00,23.4,15.7,30.42,NW,314,3.0,8.0,72,0.00,CLR,SKC,0.00,WeatherDisplay:10.37,2013-02-15 14:58:00,
2013-02-15 09:03:00,23.6,15.3,30.42,NW,314,5.0,8.0,70,0.00,CLR,SKC,0.00,WeatherDisplay:10.37,2013-02-15 15:03:00,
2013-02-15 09:08:00,23.8,15.1,30.42,NW,316,2.0,8.0,69,0.00,CLR,SKC,0.00,WeatherDisplay:10.37,2013-02-15 15:08:00,
2013-02-15 09:13:00,24.1,15.0,30.42,NW,324,5.0,10.0,68,0.00,CLR,SKC,0.00,WeatherDisplay:10.37,2013-02-15 15:13:00,
2013-02-15 09:18:00,24.2,15.2,30.42,NW,323,2.0,12.0,68,0.00,CLR,SKC,0.00,WeatherDisplay:10.37,2013-02-15 15:18:00,
2013-02-15 09:23:00,24.5,15.4,30.43,NW,318,3.0,12.0,68,0.00,CLR,SKC,0.00,WeatherDisplay:10.37,2013-02-15 15:23:00,
2013-02-15 09:28:00,24.6,15.2,30.43,NNW,332,5.0,11.0,67,0.00,CLR,SKC,0.00,WeatherDisplay:10.37,2013-02-15 15:28:00,
2013-02-15 09:38:00,24.9,14.8,30.43,NNW,328,3.0,12.0,65,0.00,CLR,SKC,0.00,WeatherDisplay:10.37,2013-02-15 15:38:00,
2013-02-15 09:43:00,25.2,14.7,30.43,NW,326,5.0,8.0,64,0.00,CLR,SKC,0.00,WeatherDisplay:10.37,2013-02-15 15:43:00,
2013-02-15 09:48:00,25.7,15.2,30.43,WNW,302,2.0,5.0,64,0.00,CLR,SKC,0.00,WeatherDisplay:10.37,2013-02-15 15:48:00,
2013-02-15 09:53:00,26.2,15.7,30.43,NW,317,2.0,8.0,64,0.00,CLR,SKC,0.00,WeatherDisplay:10.37,2013-02-15 15:53:00,
2013-02-15 09:58:00,26.1,14.5,30.43,NW,305,2.0,8.0,61,0.00,CLR,SKC,0.00,WeatherDisplay:10.37,2013-02-15 15:58:00,
2013-02-15 10:03:00,26.1,14.5,30.43,WNW,282,3.0,8.0,61,0.00,CLR,SKC,0.00,WeatherDisplay:10.37,2013-02-15 16:03:00,
2013-02-15 10:08:00,26.4,14.4,30.43,West,277,3.0,7.0,60,0.00,CLR,SKC,0.00,WeatherDisplay:10.37,2013-02-15 16:08:00,
2013-02-15 10:13:00,26.8,14.4,30.43,WNW,293,5.0,5.0,59,0.00,CLR,SKC,0.00,WeatherDisplay:10.37,2013-02-15 16:13:00,
2013-02-15 10:18:00,27.1,14.3,30.43,NW,304,5.0,7.0,58,0.00,CLR,SKC,0.00,WeatherDisplay:10.37,2013-02-15 16:18:00,
2013-02-15 10:23:00,27.7,14.0,30.43,NW,306,3.0,8.0,56,0.00,CLR,SKC,0.00,WeatherDisplay:10.37,2013-02-15 16:23:00,
2013-02-15 10:28:00,27.7,13.7,30.43,NW,308,2.0,8.0,55,0.00,CLR,SKC,0.00,WeatherDisplay:10.37,2013-02-15 16:28:00,
2013-02-15 10:38:00,28.6,13.6,30.43,NW,307,0.0,5.0,53,0.00,CLR,SKC,0.00,WeatherDisplay:10.37,2013-02-15 16:38:00,
2013-02-15 10:43:00,29.1,13.2,30.43,NW,322,3.0,8.0,51,0.00,CLR,SKC,0.00,WeatherDisplay:10.37,2013-02-15 16:43:00,
2013-02-15 10:48:00,29.3,12.5,30.43,WNW,299,8.0,13.0,49,0.00,CLR,SKC,0.00,WeatherDisplay:10.37,2013-02-15 16:48:00,
2013-02-15 10:58:00,29.6,11.8,30.43,WNW,301,3.0,8.0,47,0.00,CLR,SKC,0.00,WeatherDisplay:10.37,2013-02-15 16:58:00,
2013-02-15 11:03:00,30.0,11.7,30.43,NW,321,5.0,16.0,46,0.00,CLR,SKC,0.00,WeatherDisplay:10.37,2013-02-15 17:03:00,
2013-02-15 11:08:00,29.9,12.1,30.43,NNW,327,2.0,15.0,47,0.00,CLR,SKC,0.00,WeatherDisplay:10.37,2013-02-15 17:08:00,
2013-02-15 11:13:00,30.3,11.9,30.42,NW,318,3.0,12.0,46,0.00,CLR,SKC,0.00,WeatherDisplay:10.37,2013-02-15 17:13:00,
2013-02-15 11:18:00,30.7,10.3,30.42,NW,319,3.0,7.0,42,0.00,CLR,SKC,0.00,WeatherDisplay:10.37,2013-02-15 17:18:00,
2013-02-15 11:23:00,30.9,10.5,30.42,NW,320,3.0,5.0,42,0.00,CLR,SKC,0.00,WeatherDisplay:10.37,2013-02-15 17:23:00,
2013-02-15 11:28:00,31.2,10.2,30.42,NW,308,3.0,7.0,41,0.00,CLR,SKC,0.00,WeatherDisplay:10.37,2013-02-15 17:28:00,
2013-02-15 11:38:00,32.0,11.5,30.42,NNW,328,3.0,8.0,42,0.00,CLR,SKC,0.00,WeatherDisplay:10.37,2013-02-15 17:38:00,
2013-02-15 11:48:00,32.3,10.7,30.42,NW,304,6.0,8.0,40,0.00,CLR,SKC,0.00,WeatherDisplay:10.37,2013-02-15 17:48:00,
2013-02-15 11:58:00,32.5,9.7,30.41,NNW,334,6.0,12.0,38,0.00,CLR,SKC,0.00,WeatherDisplay:10.37,2013-02-15 17:58:00,
2013-02-15 12:03:00,32.5,9.7,30.41,NNW,331,6.0,15.0,38,0.00,CLR,SKC,0.00,WeatherDisplay:10.37,2013-02-15 18:03:00,
2013-02-15 12:08:00,32.5,9.7,30.41,NW,319,5.0,12.0,38,0.00,CLR,SKC,0.00,WeatherDisplay:10.37,2013-02-15 18:08:00,
2013-02-15 12:13:00,32.4,10.2,30.41,NW,314,5.0,16.0,39,0.00,CLR,SKC,0.00,WeatherDisplay:10.37,2013-02-15 18:13:00,
2013-02-15 12:18:00,32.9,10.6,30.40,NW,304,3.0,5.0,39,0.00,CLR,SKC,0.00,WeatherDisplay:10.37,2013-02-15 18:18:00,
2013-02-15 12:28:00,33.7,9.6,30.40,WNW,303,5.0,8.0,36,0.00,CLR,SKC,0.00,WeatherDisplay:10.37,2013-02-15 18:28:00,
2013-02-15 12:33:00,33.9,10.9,30.40,NNW,327,6.0,10.0,38,0.00,CLR,SKC,0.00,WeatherDisplay:10.37,2013-02-15 18:33:00,
2013-02-15 12:38:00,34.5,10.9,30.40,NNW,341,5.0,14.0,37,0.00,CLR,SKC,0.00,WeatherDisplay:10.37,2013-02-15 18:38:00,
2013-02-15 12:48:00,34.2,9.4,30.39,WNW,301,5.0,10.0,35,0.00,CLR,SKC,0.00,WeatherDisplay:10.37,2013-02-15 18:48:00,
2013-02-15 12:53:00,34.2,9.4,30.39,WNW,294,5.0,11.0,35,0.00,CLR,SKC,0.00,WeatherDisplay:10.37,2013-02-15 18:53:00,
2013-02-15 12:58:00,34.5,9.0,30.38,NW,308,5.0,8.0,34,0.00,CLR,SKC,0.00,WeatherDisplay:10.37,2013-02-15 18:58:00,
2013-02-15 13:03:00,34.4,9.6,30.38,WNW,292,2.0,10.0,35,0.00,CLR,SKC,0.00,WeatherDisplay:10.37,2013-02-15 19:03:00,
2013-02-15 13:08:00,35.1,10.2,30.38,WNW,290,6.0,15.0,35,0.00,CLR,SKC,0.00,WeatherDisplay:10.37,2013-02-15 19:08:00,
2013-02-15 13:13:00,35.3,10.3,30.38,NW,308,6.0,13.0,35,0.00,CLR,SKC,0.00,WeatherDisplay:10.37,2013-02-15 19:13:00,
2013-02-15 13:18:00,35.2,10.9,30.38,NW,313,5.0,10.0,36,0.00,CLR,SKC,0.00,WeatherDisplay:10.37,2013-02-15 19:18:00,
2013-02-15 13:28:00,35.3,11.6,30.38,NW,314,7.0,15.0,37,0.00,CLR,SKC,0.00,WeatherDisplay:10.37,2013-02-15 19:28:00,
2013-02-15 13:38:00,35.6,13.1,30.37,NW,321,8.0,15.0,39,0.00,CLR,SKC,0.00,WeatherDisplay:10.37,2013-02-15 19:38:00,
2013-02-15 13:48:00,35.9,13.9,30.37,NW,309,6.0,12.0,40,0.00,CLR,SKC,0.00,WeatherDisplay:10.37,2013-02-15 19:48:00,
2013-02-15 13:53:00,35.9,13.9,30.37,NW,320,8.0,18.0,40,0.00,CLR,SKC,0.00,WeatherDisplay:10.37,2013-02-15 19:53:00,
2013-02-15 13:58:00,35.9,14.5,30.37,NNW,337,10.0,22.0,41,0.00,CLR,SKC,0.00,WeatherDisplay:10.37,2013-02-15 19:58:00,
2013-02-15 14:03:00,36.0,14.0,30.36,NNW,342,6.0,10.0,40,0.00,CLR,SKC,0.00,WeatherDisplay:10.37,2013-02-15 20:03:00,
2013-02-15 14:08:00,36.1,14.7,30.36,NW,314,6.0,8.0,41,0.00,CLR,SKC,0.00,WeatherDisplay:10.37,2013-02-15 20:08:00,
2013-02-15 14:13:00,36.4,14.9,30.36,NW,316,9.0,13.0,41,0.00,CLR,SKC,0.00,WeatherDisplay:10.37,2013-02-15 20:13:00,
2013-02-15 14:18:00,36.7,14.6,30.36,NNW,338,8.0,13.0,40,0.00,CLR,SKC,0.00,WeatherDisplay:10.37,2013-02-15 20:18:00,
2013-02-15 14:28:00,36.8,14.1,30.36,NNW,327,7.0,17.0,39,0.00,CLR,SKC,0.00,WeatherDisplay:10.37,2013-02-15 20:28:00,
2013-02-15 14:33:00,37.1,15.0,30.36,NW,316,6.0,21.0,40,0.00,CLR,SKC,0.00,WeatherDisplay:10.37,2013-02-15 20:33:00,
2013-02-15 14:38:00,37.4,15.2,30.36,NNW,328,7.0,12.0,40,0.00,CLR,SKC,0.00,WeatherDisplay:10.37,2013-02-15 20:38:00,
2013-02-15 14:43:00,37.4,15.3,30.36,NW,325,3.0,8.0,40,0.00,CLR,SKC,0.00,WeatherDisplay:10.37,2013-02-15 20:43:00,
2013-02-15 14:48:00,37.4,15.3,30.35,NW,322,7.0,26.0,40,0.00,CLR,SKC,0.00,WeatherDisplay:10.37,2013-02-15 20:48:00,
2013-02-15 14:58:00,37.3,13.4,30.35,NW,313,6.0,13.0,37,0.00,CLR,SKC,0.00,WeatherDisplay:10.37,2013-02-15 20:58:00,
2013-02-15 15:03:00,36.9,13.6,30.36,NW,313,6.0,13.0,38,0.00,CLR,SKC,0.00,WeatherDisplay:10.37,2013-02-15 21:03:00,
2013-02-15 15:08:00,36.9,14.2,30.36,NW,323,8.0,18.0,39,0.00,CLR,SKC,0.00,WeatherDisplay:10.37,2013-02-15 21:08:00,
2013-02-15 15:18:00,37.1,13.8,30.35,NNW,327,7.0,15.0,38,0.00,CLR,SKC,0.00,WeatherDisplay:10.37,2013-02-15 21:18:00,
2013-02-15 15:28:00,36.7,13.5,30.35,NW,319,5.0,14.0,38,0.00,CLR,SKC,0.00,WeatherDisplay:10.37,2013-02-15 21:28:00,
2013-02-15 15:38:00,36.8,13.5,30.35,NNW,330,7.0,10.0,38,0.00,CLR,SKC,0.00,WeatherDisplay:10.37,2013-02-15 21:38:00,
2013-02-15 15:48:00,37.2,13.3,30.35,NW,321,5.0,16.0,37,0.00,CLR,SKC,0.00,WeatherDisplay:10.37,2013-02-15 21:48:00,
2013-02-15 15:53:00,37.1,13.2,30.35,NW,318,7.0,18.0,37,0.00,CLR,SKC,0.00,WeatherDisplay:10.37,2013-02-15 21:53:00,
2013-02-15 15:58:00,37.0,12.5,30.35,NW,312,6.0,15.0,36,0.00,CLR,SKC,0.00,WeatherDisplay:10.37,2013-02-15 21:58:00,
2013-02-15 16:03:00,36.8,12.9,30.35,NW,304,6.0,18.0,37,0.00,CLR,SKC,0.00,WeatherDisplay:10.37,2013-02-15 22:03:00,
2013-02-15 16:08:00,36.7,12.9,30.35,NW,315,5.0,15.0,37,0.00,CLR,SKC,0.00,WeatherDisplay:10.37,2013-02-15 22:08:00,
2013-02-15 16:13:00,36.8,12.9,30.35,NW,320,3.0,11.0,37,0.00,CLR,SKC,0.00,WeatherDisplay:10.37,2013-02-15 22:13:00,
2013-02-15 16:18:00,36.7,12.2,30.35,NW,317,5.0,15.0,36,0.00,CLR,SKC,0.00,WeatherDisplay:10.37,2013-02-15 22:18:00,
2013-02-15 16:23:00,36.6,13.4,30.35,NW,307,5.0,15.0,38,0.00,CLR,SKC,0.00,WeatherDisplay:10.37,2013-02-15 22:23:00,
2013-02-15 16:28:00,36.7,13.5,30.35,NW,308,5.0,8.0,38,0.00,CLR,SKC,0.00,WeatherDisplay:10.37,2013-02-15 22:28:00,
2013-02-15 16:33:00,36.5,12.6,30.35,NNW,343,9.0,21.0,37,0.00,CLR,SKC,0.00,WeatherDisplay:10.37,2013-02-15 22:33:00,
2013-02-15 16:38:00,36.3,13.1,30.35,NNW,343,12.0,16.0,38,0.00,CLR,SKC,0.00,WeatherDisplay:10.37,2013-02-15 22:38:00,
2013-02-15 16:48:00,36.1,13.5,30.35,NNW,346,7.0,20.0,39,0.00,CLR,SKC,0.00,WeatherDisplay:10.37,2013-02-15 22:48:00,
2013-02-15 16:53:00,35.9,13.9,30.35,North,358,14.0,16.0,40,0.00,CLR,SKC,0.00,WeatherDisplay:10.37,2013-02-15 22:53:00,
2013-02-15 16:58:00,35.6,13.7,30.35,North,356,13.0,18.0,40,0.00,CLR,SKC,0.00,WeatherDisplay:10.37,2013-02-15 22:58:00,
2013-02-15 17:03:00,35.4,14.0,30.35,North,353,9.0,17.0,41,0.00,CLR,SKC,0.00,WeatherDisplay:10.37,2013-02-15 23:03:00,
2013-02-15 17:08:00,35.2,14.4,30.35,NNE,13,16.0,18.0,42,0.00,CLR,SKC,0.00,WeatherDisplay:10.37,2013-02-15 23:08:00,
2013-02-15 17:13:00,35.1,14.8,30.35,North,8,9.0,12.0,43,0.00,CLR,SKC,0.00,WeatherDisplay:10.37,2013-02-15 23:13:00,
2013-02-15 17:18:00,35.1,14.8,30.35,North,358,7.0,15.0,43,0.00,CLR,SKC,0.00,WeatherDisplay:10.37,2013-02-15 23:18:00,
2013-02-15 17:23:00,35.0,14.7,30.35,North,5,9.0,16.0,43,0.00,CLR,SKC,0.00,WeatherDisplay:10.37,2013-02-15 23:23:00,
2013-02-15 17:28:00,34.9,14.6,30.35,North,11,10.0,18.0,43,0.00,CLR,SKC,0.00,WeatherDisplay:10.37,2013-02-15 23:28:00,
2013-02-15 17:33:00,34.8,15.6,30.35,North,10,7.0,15.0,45,0.00,CLR,SKC,0.00,WeatherDisplay:10.37,2013-02-15 23:33:00,
2013-02-15 17:38:00,34.6,15.4,30.34,North,4,10.0,15.0,45,0.00,CLR,SKC,0.00,WeatherDisplay:10.37,2013-02-15 23:38:00,
2013-02-15 17:43:00,34.3,15.2,30.34,North,6,8.0,12.0,45,0.00,CLR,SKC,0.00,WeatherDisplay:10.37,2013-02-15 23:43:00,
2013-02-15 17:48:00,34.1,15.5,30.35,North,1,12.0,15.0,46,0.00,CLR,SKC,0.00,WeatherDisplay:10.37,2013-02-15 23:48:00,
2013-02-15 17:53:00,33.9,15.8,30.34,North,5,8.0,12.0,47,0.00,CLR,SKC,0.00,WeatherDisplay:10.37,2013-02-15 23:53:00,
2013-02-15 17:58:00,33.7,15.6,30.34,NNE,12,6.0,10.0,47,0.00,CLR,SKC,0.00,WeatherDisplay:10.37,2013-02-15 23:58:00,
2013-02-15 18:03:00,33.5,15.4,30.34,NNE,13,6.0,10.0,47,0.00,CLR,SKC,0.00,WeatherDisplay:10.37,2013-02-16 00:03:00,
2013-02-15 18:08:00,33.4,15.8,30.34,North,6,7.0,12.0,48,0.00,CLR,SKC,0.00,WeatherDisplay:10.37,2013-02-16 00:08:00,
2013-02-15 18:18:00,33.1,15.5,30.34,North,8,9.0,15.0,48,0.00,CLR,SKC,0.00,WeatherDisplay:10.37,2013-02-16 00:18:00,
2013-02-15 18:23:00,32.9,15.8,30.35,North,7,7.0,15.0,49,0.00,CLR,SKC,0.00,WeatherDisplay:10.37,2013-02-16 00:23:00,
2013-02-15 18:28:00,32.7,15.7,30.35,North,6,5.0,13.0,49,0.00,CLR,SKC,0.00,WeatherDisplay:10.37,2013-02-16 00:28:00,
2013-02-15 18:33:00,32.5,15.5,30.35,North,8,6.0,7.0,49,0.00,CLR,SKC,0.00,WeatherDisplay:10.37,2013-02-16 00:33:00,
2013-02-15 18:38:00,32.4,15.8,30.35,North,7,6.0,8.0,50,0.00,CLR,SKC,0.00,WeatherDisplay:10.37,2013-02-16 00:38:00,
2013-02-15 18:43:00,32.4,15.4,30.35,NNE,25,5.0,7.0,49,0.00,CLR,SKC,0.00,WeatherDisplay:10.37,2013-02-16 00:43:00,
2013-02-15 18:48:00,32.3,15.7,30.35,NE,42,2.0,3.0,50,0.00,CLR,SKC,0.00,WeatherDisplay:10.37,2013-02-16 00:48:00,
2013-02-15 18:53:00,32.1,15.5,30.35,NNE,19,5.0,7.0,50,0.00,CLR,SKC,0.00,WeatherDisplay:10.37,2013-02-16 00:53:00,
2013-02-15 18:58:00,32.1,15.5,30.35,NNE,18,5.0,10.0,50,0.00,CLR,SKC,0.00,WeatherDisplay:10.37,2013-02-16 00:58:00,
2013-02-15 19:03:00,32.0,15.5,30.35,NNE,28,5.0,7.0,50,0.00,CLR,SKC,0.00,WeatherDisplay:10.37,2013-02-16 01:03:00,
2013-02-15 19:08:00,31.9,15.4,30.35,NE,50,5.0,7.0,50,0.00,CLR,SKC,0.00,WeatherDisplay:10.37,2013-02-16 01:08:00,
2013-02-15 19:18:00,31.6,16.9,30.35,ENE,66,0.0,2.0,54,0.00,CLR,SKC,0.00,WeatherDisplay:10.37,2013-02-16 01:18:00,
2013-02-15 19:23:00,31.3,16.1,30.35,ENE,65,0.0,0.0,53,0.00,CLR,SKC,0.00,WeatherDisplay:10.37,2013-02-16 01:23:00,
2013-02-15 19:28:00,30.9,15.8,30.35,ENE,65,0.0,0.0,53,0.00,CLR,SKC,0.00,WeatherDisplay:10.37,2013-02-16 01:28:00,
2013-02-15 19:33:00,30.4,15.7,30.35,ENE,65,0.0,0.0,54,0.00,CLR,SKC,0.00,WeatherDisplay:10.37,2013-02-16 01:33:00,
2013-02-15 19:38:00,30.0,15.4,30.35,ENE,65,0.0,0.0,54,0.00,CLR,SKC,0.00,WeatherDisplay:10.37,2013-02-16 01:38:00,
2013-02-15 19:43:00,29.6,15.3,30.35,ENE,65,0.0,0.0,55,0.00,CLR,SKC,0.00,WeatherDisplay:10.37,2013-02-16 01:43:00,
2013-02-15 19:48:00,29.1,15.7,30.34,ENE,65,0.0,0.0,57,0.00,CLR,SKC,0.00,WeatherDisplay:10.37,2013-02-16 01:48:00,
2013-02-15 19:53:00,28.8,15.1,30.34,ENE,65,0.0,0.0,56,0.00,CLR,SKC,0.00,WeatherDisplay:10.37,2013-02-16 01:53:00,
2013-02-15 20:03:00,28.9,16.0,30.34,ENE,65,0.0,0.0,58,0.00,CLR,SKC,0.00,WeatherDisplay:10.37,2013-02-16 02:03:00,
2013-02-15 20:08:00,29.1,16.2,30.34,East,89,0.0,2.0,58,0.00,CLR,SKC,0.00,WeatherDisplay:10.37,2013-02-16 02:08:00,
2013-02-15 20:18:00,29.1,16.1,30.34,SE,139,0.0,0.0,58,0.00,CLR,SKC,0.00,WeatherDisplay:10.37,2013-02-16 02:18:00,
2013-02-15 20:28:00,28.8,16.3,30.34,SE,139,0.0,0.0,59,0.00,CLR,SKC,0.00,WeatherDisplay:10.37,2013-02-16 02:28:00,
2013-02-15 20:33:00,29.0,16.8,30.35,SE,139,0.0,0.0,60,0.00,CLR,SKC,0.00,WeatherDisplay:10.37,2013-02-16 02:33:00,
2013-02-15 20:38:00,29.2,16.6,30.35,SE,139,0.0,0.0,59,0.00,CLR,SKC,0.00,WeatherDisplay:10.37,2013-02-16 02:38:00,
2013-02-15 20:43:00,29.5,16.2,30.35,SE,129,1.0,5.0,57,0.00,CLR,SKC,0.00,WeatherDisplay:10.37,2013-02-16 02:43:00,
2013-02-15 20:48:00,30.2,16.4,30.35,North,5,2.0,5.0,56,0.00,CLR,SKC,0.00,WeatherDisplay:10.37,2013-02-16 02:48:00,
2013-02-15 20:53:00,30.7,16.9,30.36,North,2,0.0,2.0,56,0.00,CLR,SKC,0.00,WeatherDisplay:10.37,2013-02-16 02:53:00,
2013-02-15 20:58:00,31.2,17.3,30.36,North,354,1.0,6.0,56,0.00,CLR,SKC,0.00,WeatherDisplay:10.37,2013-02-16 02:58:00,
2013-02-15 21:03:00,31.1,19.9,30.37,NW,323,6.0,12.0,63,0.00,CLR,SKC,0.00,WeatherDisplay:10.37,2013-02-16 03:03:00,
2013-02-15 21:08:00,30.0,22.7,30.37,NW,318,5.0,7.0,74,0.00,CLR,SKC,0.00,WeatherDisplay:10.37,2013-02-16 03:08:00,
2013-02-15 21:18:00,28.4,23.9,30.37,NNW,341,1.0,10.0,83,0.00,CLR,SKC,0.00,WeatherDisplay:10.37,2013-02-16 03:18:00,
2013-02-15 21:28:00,27.8,24.2,30.37,NNW,347,3.0,5.0,86,0.00,CLR,SKC,0.00,WeatherDisplay:10.37,2013-02-16 03:28:00,
2013-02-15 21:33:00,27.7,24.3,30.37,NNE,24,0.0,3.0,87,0.00,CLR,SKC,0.00,WeatherDisplay:10.37,2013-02-16 03:33:00,
2013-02-15 21:38:00,27.6,24.3,30.37,NNE,27,0.0,0.0,87,0.00,CLR,SKC,0.00,WeatherDisplay:10.37,2013-02-16 03:38:00,
2013-02-15 21:48:00,27.5,24.4,30.38,NE,34,8.0,10.0,88,0.00,CLR,SKC,0.00,WeatherDisplay:10.37,2013-02-16 03:48:00,
2013-02-15 21:53:00,27.4,24.3,30.38,NNE,16,7.0,8.0,88,0.00,CLR,SKC,0.00,WeatherDisplay:10.37,2013-02-16 03:53:00,
2013-02-15 21:58:00,27.3,24.2,30.37,NNE,23,8.0,12.0,88,0.00,CLR,SKC,0.00,WeatherDisplay:10.37,2013-02-16 03:58:00,
2013-02-15 22:03:00,27.2,24.4,30.37,NE,40,2.0,5.0,89,0.00,CLR,SKC,0.00,WeatherDisplay:10.37,2013-02-16 04:03:00,
2013-02-15 22:08:00,27.0,24.2,30.37,NE,53,5.0,8.0,89,0.00,CLR,SKC,0.00,WeatherDisplay:10.37,2013-02-16 04:08:00,
2013-02-15 22:18:00,26.9,24.1,30.36,ENE,57,3.0,10.0,89,0.00,CLR,SKC,0.00,WeatherDisplay:10.37,2013-02-16 04:18:00,
2013-02-15 22:23:00,26.9,24.4,30.36,ENE,68,5.0,7.0,90,0.00,CLR,SKC,0.00,WeatherDisplay:10.37,2013-02-16 04:23:00,
2013-02-15 22:28:00,26.8,24.3,30.36,ENE,71,5.0,8.0,90,0.00,CLR,SKC,0.00,WeatherDisplay:10.37,2013-02-16 04:28:00,
2013-02-15 22:33:00,26.7,24.2,30.36,ENE,68,3.0,10.0,90,0.00,CLR,SKC,0.00,WeatherDisplay:10.37,2013-02-16 04:33:00,
2013-02-15 22:38:00,26.7,24.2,30.36,ENE,68,6.0,8.0,90,0.00,CLR,SKC,0.00,WeatherDisplay:10.37,2013-02-16 04:38:00,
2013-02-15 22:43:00,26.7,24.2,30.36,NE,48,6.0,8.0,90,0.00,CLR,SKC,0.00,WeatherDisplay:10.37,2013-02-16 04:43:00,
2013-02-15 22:48:00,26.7,24.2,30.36,ENE,61,1.0,7.0,90,0.00,CLR,SKC,0.00,WeatherDisplay:10.37,2013-02-16 04:48:00,
2013-02-15 22:58:00,26.7,24.2,30.36,East,85,2.0,8.0,90,0.00,CLR,SKC,0.00,WeatherDisplay:10.37,2013-02-16 04:58:00,
2013-02-15 23:03:00,26.7,24.2,30.36,ENE,60,3.0,7.0,90,0.00,CLR,SKC,0.00,WeatherDisplay:10.37,2013-02-16 05:03:00,
2013-02-15 23:08:00,26.6,24.1,30.36,NE,46,6.0,10.0,90,0.00,CLR,SKC,0.00,WeatherDisplay:10.37,2013-02-16 05:08:00,
2013-02-15 23:18:00,26.7,24.2,30.37,NE,34,7.0,12.0,90,0.00,CLR,SKC,0.00,WeatherDisplay:10.37,2013-02-16 05:18:00,
2013-02-15 23:23:00,26.6,23.8,30.37,NE,51,8.0,11.0,89,0.00,CLR,SKC,0.00,WeatherDisplay:10.37,2013-02-16 05:23:00,
2013-02-15 23:33:00,26.5,23.7,30.36,NE,40,5.0,7.0,89,0.00,CLR,SKC,0.00,WeatherDisplay:10.37,2013-02-16 05:33:00,
2013-02-15 23:38:00,26.3,23.8,30.36,NE,40,0.0,7.0,90,0.00,CLR,SKC,0.00,WeatherDisplay:10.37,2013-02-16 05:38:00,
2013-02-15 23:48:00,26.0,23.8,30.36,ENE,61,1.0,7.0,91,0.00,CLR,SKC,0.00,WeatherDisplay:10.37,2013-02-16 05:48:00,
2013-02-15 23:58:00,26.0,23.8,30.36,NE,47,2.0,7.0,91,0.00,CLR,SKC,0.00,WeatherDisplay:10.37,2013-02-16 05:58:00,